sensor_id;sensor_type;location;lat;lon;timestamp;P1;durP1;ratioP1;P2;durP2;ratioP2
22628;SDS011;11481;53.694;9.910;2023-07-28T00:01:53;5.57;;;3.67;;
22628;SDS011;11481;53.694;9.910;2023-07-28T00:04:19;6.05;;;3.83;;
22628;SDS011;11481;53.694;9.910;2023-07-28T00:06:46;5.88;;;3.63;;
22628;SDS011;11481;53.694;9.910;2023-07-28T00:09:13;5.38;;;3.55;;
22628;SDS011;11481;53.694;9.910;2023-07-28T00:11:39;6.68;;;3.50;;
22628;SDS011;11481;53.694;9.910;2023-07-28T00:14:06;5.60;;;3.60;;
22628;SDS011;11481;53.694;9.910;2023-07-28T00:16:33;5.55;;;3.63;;
22628;SDS011;11481;53.694;9.910;2023-07-28T00:19:00;7.72;;;4.18;;
22628;SDS011;11481;53.694;9.910;2023-07-28T00:21:27;5.55;;;3.88;;
22628;SDS011;11481;53.694;9.910;2023-07-28T00:23:53;5.05;;;3.55;;
22628;SDS011;11481;53.694;9.910;2023-07-28T00:26:20;5.90;;;4.10;;
22628;SDS011;11481;53.694;9.910;2023-07-28T00:28:47;6.70;;;4.45;;
22628;SDS011;11481;53.694;9.910;2023-07-28T00:31:14;5.03;;;3.63;;
22628;SDS011;11481;53.694;9.910;2023-07-28T00:33:41;6.68;;;3.88;;
22628;SDS011;11481;53.694;9.910;2023-07-28T00:36:09;6.47;;;3.90;;
22628;SDS011;11481;53.694;9.910;2023-07-28T00:38:35;5.78;;;3.95;;
22628;SDS011;11481;53.694;9.910;2023-07-28T00:41:02;6.57;;;4.47;;
22628;SDS011;11481;53.694;9.910;2023-07-28T00:43:29;6.35;;;3.65;;
22628;SDS011;11481;53.694;9.910;2023-07-28T00:45:55;6.22;;;3.72;;
22628;SDS011;11481;53.694;9.910;2023-07-28T00:48:22;6.80;;;3.75;;
22628;SDS011;11481;53.694;9.910;2023-07-28T00:50:49;6.57;;;3.90;;
22628;SDS011;11481;53.694;9.910;2023-07-28T00:53:17;6.53;;;4.28;;
22628;SDS011;11481;53.694;9.910;2023-07-28T00:55:45;6.07;;;3.90;;
22628;SDS011;11481;53.694;9.910;2023-07-28T00:58:12;5.85;;;3.70;;
22628;SDS011;11481;53.694;9.910;2023-07-28T01:00:39;6.80;;;3.85;;
22628;SDS011;11481;53.694;9.910;2023-07-28T01:03:06;5.38;;;3.53;;
22628;SDS011;11481;53.694;9.910;2023-07-28T01:05:35;6.15;;;3.58;;
22628;SDS011;11481;53.694;9.910;2023-07-28T01:10:54;6.22;;;3.95;;
22628;SDS011;11481;53.694;9.910;2023-07-28T01:13:21;5.28;;;3.92;;
22628;SDS011;11481;53.694;9.910;2023-07-28T01:15:48;5.07;;;3.70;;
22628;SDS011;11481;53.694;9.910;2023-07-28T01:18:15;5.03;;;3.42;;
22628;SDS011;11481;53.694;9.910;2023-07-28T01:20:41;5.75;;;3.70;;
22628;SDS011;11481;53.694;9.910;2023-07-28T01:23:18;5.40;;;3.75;;
22628;SDS011;11481;53.694;9.910;2023-07-28T01:28:22;7.00;;;4.70;;
22628;SDS011;11481;53.694;9.910;2023-07-28T01:30:49;5.55;;;3.45;;
22628;SDS011;11481;53.694;9.910;2023-07-28T01:33:16;5.03;;;3.60;;
22628;SDS011;11481;53.694;9.910;2023-07-28T01:35:43;5.10;;;3.40;;
22628;SDS011;11481;53.694;9.910;2023-07-28T01:38:10;5.05;;;3.75;;
22628;SDS011;11481;53.694;9.910;2023-07-28T01:40:36;8.68;;;4.53;;
22628;SDS011;11481;53.694;9.910;2023-07-28T01:43:03;6.32;;;3.80;;
22628;SDS011;11481;53.694;9.910;2023-07-28T01:45:29;5.72;;;3.78;;
22628;SDS011;11481;53.694;9.910;2023-07-28T01:47:56;6.07;;;3.85;;
22628;SDS011;11481;53.694;9.910;2023-07-28T01:50:23;5.65;;;4.07;;
22628;SDS011;11481;53.694;9.910;2023-07-28T01:52:49;6.55;;;4.15;;
22628;SDS011;11481;53.694;9.910;2023-07-28T01:55:16;6.07;;;4.03;;
22628;SDS011;11481;53.694;9.910;2023-07-28T01:57:49;5.03;;;3.90;;
22628;SDS011;11481;53.694;9.910;2023-07-28T02:00:20;6.75;;;4.05;;
22628;SDS011;11481;53.694;9.910;2023-07-28T02:02:48;5.85;;;4.18;;
22628;SDS011;11481;53.694;9.910;2023-07-28T02:05:15;6.80;;;4.40;;
22628;SDS011;11481;53.694;9.910;2023-07-28T02:07:41;7.65;;;4.25;;
22628;SDS011;11481;53.694;9.910;2023-07-28T02:10:09;6.28;;;4.13;;
22628;SDS011;11481;53.694;9.910;2023-07-28T02:12:37;5.53;;;4.30;;
22628;SDS011;11481;53.694;9.910;2023-07-28T02:15:07;4.97;;;3.45;;
22628;SDS011;11481;53.694;9.910;2023-07-28T02:17:34;6.45;;;4.95;;
22628;SDS011;11481;53.694;9.910;2023-07-28T02:20:01;7.45;;;4.78;;
22628;SDS011;11481;53.694;9.910;2023-07-28T02:22:29;7.65;;;4.90;;
22628;SDS011;11481;53.694;9.910;2023-07-28T02:24:56;8.43;;;4.18;;
22628;SDS011;11481;53.694;9.910;2023-07-28T02:27:26;6.20;;;4.05;;
22628;SDS011;11481;53.694;9.910;2023-07-28T02:29:53;5.75;;;3.55;;
22628;SDS011;11481;53.694;9.910;2023-07-28T02:32:19;6.65;;;4.15;;
22628;SDS011;11481;53.694;9.910;2023-07-28T02:34:46;6.80;;;4.15;;
22628;SDS011;11481;53.694;9.910;2023-07-28T02:37:14;5.28;;;3.35;;
22628;SDS011;11481;53.694;9.910;2023-07-28T02:39:41;6.20;;;3.83;;
22628;SDS011;11481;53.694;9.910;2023-07-28T02:42:08;5.53;;;3.90;;
22628;SDS011;11481;53.694;9.910;2023-07-28T02:44:35;6.00;;;4.00;;
22628;SDS011;11481;53.694;9.910;2023-07-28T02:47:01;6.38;;;3.60;;
22628;SDS011;11481;53.694;9.910;2023-07-28T02:49:28;5.97;;;3.67;;
22628;SDS011;11481;53.694;9.910;2023-07-28T02:51:54;6.40;;;3.80;;
22628;SDS011;11481;53.694;9.910;2023-07-28T02:59:32;5.63;;;3.70;;
22628;SDS011;11481;53.694;9.910;2023-07-28T03:01:58;6.72;;;3.47;;
22628;SDS011;11481;53.694;9.910;2023-07-28T03:04:25;5.15;;;3.28;;
22628;SDS011;11481;53.694;9.910;2023-07-28T03:06:52;5.18;;;3.20;;
22628;SDS011;11481;53.694;9.910;2023-07-28T03:09:19;6.28;;;3.28;;
22628;SDS011;11481;53.694;9.910;2023-07-28T03:11:45;4.35;;;3.03;;
22628;SDS011;11481;53.694;9.910;2023-07-28T03:14:12;4.55;;;2.50;;
22628;SDS011;11481;53.694;9.910;2023-07-28T03:16:39;4.53;;;2.72;;
22628;SDS011;11481;53.694;9.910;2023-07-28T03:19:07;5.65;;;3.25;;
22628;SDS011;11481;53.694;9.910;2023-07-28T03:21:34;5.57;;;3.20;;
22628;SDS011;11481;53.694;9.910;2023-07-28T03:24:04;4.63;;;3.00;;
22628;SDS011;11481;53.694;9.910;2023-07-28T03:26:31;4.35;;;2.80;;
22628;SDS011;11481;53.694;9.910;2023-07-28T03:28:58;6.78;;;3.47;;
22628;SDS011;11481;53.694;9.910;2023-07-28T03:31:25;4.72;;;2.90;;
22628;SDS011;11481;53.694;9.910;2023-07-28T03:33:52;5.13;;;2.67;;
22628;SDS011;11481;53.694;9.910;2023-07-28T03:36:18;5.00;;;2.95;;
22628;SDS011;11481;53.694;9.910;2023-07-28T03:38:45;4.38;;;2.90;;
22628;SDS011;11481;53.694;9.910;2023-07-28T03:41:13;4.32;;;3.03;;
22628;SDS011;11481;53.694;9.910;2023-07-28T03:43:40;6.70;;;3.50;;
22628;SDS011;11481;53.694;9.910;2023-07-28T03:46:07;4.15;;;2.97;;
22628;SDS011;11481;53.694;9.910;2023-07-28T03:48:34;4.82;;;3.10;;
22628;SDS011;11481;53.694;9.910;2023-07-28T03:51:01;4.28;;;3.00;;
22628;SDS011;11481;53.694;9.910;2023-07-28T03:53:28;4.65;;;3.10;;
22628;SDS011;11481;53.694;9.910;2023-07-28T03:55:55;4.93;;;3.30;;
22628;SDS011;11481;53.694;9.910;2023-07-28T03:58:24;6.18;;;3.22;;
22628;SDS011;11481;53.694;9.910;2023-07-28T04:00:52;5.28;;;3.30;;
22628;SDS011;11481;53.694;9.910;2023-07-28T04:03:19;4.75;;;3.28;;
22628;SDS011;11481;53.694;9.910;2023-07-28T04:05:46;4.88;;;3.05;;
22628;SDS011;11481;53.694;9.910;2023-07-28T04:08:13;4.70;;;3.05;;
22628;SDS011;11481;53.694;9.910;2023-07-28T04:10:40;4.63;;;2.55;;
22628;SDS011;11481;53.694;9.910;2023-07-28T04:13:06;4.57;;;2.78;;
22628;SDS011;11481;53.694;9.910;2023-07-28T04:15:34;5.82;;;3.03;;
22628;SDS011;11481;53.694;9.910;2023-07-28T04:18:00;4.75;;;3.00;;
22628;SDS011;11481;53.694;9.910;2023-07-28T04:20:28;5.00;;;3.17;;
22628;SDS011;11481;53.694;9.910;2023-07-28T04:22:55;4.53;;;2.65;;
22628;SDS011;11481;53.694;9.910;2023-07-28T04:25:21;5.22;;;3.25;;
22628;SDS011;11481;53.694;9.910;2023-07-28T04:27:48;7.18;;;3.40;;
22628;SDS011;11481;53.694;9.910;2023-07-28T04:30:15;6.32;;;3.63;;
22628;SDS011;11481;53.694;9.910;2023-07-28T04:32:42;7.03;;;3.15;;
22628;SDS011;11481;53.694;9.910;2023-07-28T04:35:08;6.15;;;3.65;;
22628;SDS011;11481;53.694;9.910;2023-07-28T04:37:35;4.82;;;3.10;;
22628;SDS011;11481;53.694;9.910;2023-07-28T04:40:02;5.45;;;3.22;;
22628;SDS011;11481;53.694;9.910;2023-07-28T04:42:29;6.07;;;3.50;;
22628;SDS011;11481;53.694;9.910;2023-07-28T04:44:56;5.10;;;3.53;;
22628;SDS011;11481;53.694;9.910;2023-07-28T04:47:23;3.65;;;2.55;;
22628;SDS011;11481;53.694;9.910;2023-07-28T04:49:49;5.18;;;3.70;;
22628;SDS011;11481;53.694;9.910;2023-07-28T04:52:16;5.18;;;3.30;;
22628;SDS011;11481;53.694;9.910;2023-07-28T04:54:43;5.80;;;3.15;;
22628;SDS011;11481;53.694;9.910;2023-07-28T04:57:09;5.43;;;3.35;;
22628;SDS011;11481;53.694;9.910;2023-07-28T04:59:39;5.85;;;3.63;;
22628;SDS011;11481;53.694;9.910;2023-07-28T05:02:06;5.72;;;3.47;;
22628;SDS011;11481;53.694;9.910;2023-07-28T05:04:32;5.35;;;3.38;;
22628;SDS011;11481;53.694;9.910;2023-07-28T05:06:59;6.78;;;4.25;;
22628;SDS011;11481;53.694;9.910;2023-07-28T05:09:26;6.32;;;4.00;;
22628;SDS011;11481;53.694;9.910;2023-07-28T05:11:54;7.25;;;4.22;;
22628;SDS011;11481;53.694;9.910;2023-07-28T05:14:21;7.32;;;4.25;;
22628;SDS011;11481;53.694;9.910;2023-07-28T05:16:48;6.85;;;4.00;;
22628;SDS011;11481;53.694;9.910;2023-07-28T05:19:14;6.82;;;4.05;;
22628;SDS011;11481;53.694;9.910;2023-07-28T05:21:41;6.80;;;4.55;;
22628;SDS011;11481;53.694;9.910;2023-07-28T05:24:07;7.53;;;4.25;;
22628;SDS011;11481;53.694;9.910;2023-07-28T05:26:34;7.00;;;4.30;;
22628;SDS011;11481;53.694;9.910;2023-07-28T05:29:01;7.10;;;4.35;;
22628;SDS011;11481;53.694;9.910;2023-07-28T05:31:28;9.10;;;5.68;;
22628;SDS011;11481;53.694;9.910;2023-07-28T05:33:54;8.75;;;5.38;;
22628;SDS011;11481;53.694;9.910;2023-07-28T05:36:21;7.70;;;5.22;;
22628;SDS011;11481;53.694;9.910;2023-07-28T05:38:49;9.32;;;5.38;;
22628;SDS011;11481;53.694;9.910;2023-07-28T05:41:16;9.55;;;5.88;;
22628;SDS011;11481;53.694;9.910;2023-07-28T05:43:42;9.25;;;5.50;;
22628;SDS011;11481;53.694;9.910;2023-07-28T05:46:09;9.05;;;5.72;;
22628;SDS011;11481;53.694;9.910;2023-07-28T05:48:36;9.52;;;5.75;;
22628;SDS011;11481;53.694;9.910;2023-07-28T05:51:02;9.05;;;5.50;;
22628;SDS011;11481;53.694;9.910;2023-07-28T05:53:29;10.77;;;6.40;;
22628;SDS011;11481;53.694;9.910;2023-07-28T05:55:55;9.38;;;5.65;;
22628;SDS011;11481;53.694;9.910;2023-07-28T05:58:22;8.60;;;5.75;;
22628;SDS011;11481;53.694;9.910;2023-07-28T06:00:49;9.95;;;6.10;;
22628;SDS011;11481;53.694;9.910;2023-07-28T06:03:16;9.95;;;5.35;;
22628;SDS011;11481;53.694;9.910;2023-07-28T06:05:43;8.40;;;5.57;;
22628;SDS011;11481;53.694;9.910;2023-07-28T06:08:09;9.40;;;5.88;;
22628;SDS011;11481;53.694;9.910;2023-07-28T06:10:36;9.20;;;5.72;;
22628;SDS011;11481;53.694;9.910;2023-07-28T06:13:04;9.20;;;5.38;;
22628;SDS011;11481;53.694;9.910;2023-07-28T06:15:31;10.93;;;6.43;;
22628;SDS011;11481;53.694;9.910;2023-07-28T06:17:57;12.52;;;6.18;;
22628;SDS011;11481;53.694;9.910;2023-07-28T06:20:24;8.82;;;6.22;;
22628;SDS011;11481;53.694;9.910;2023-07-28T06:22:51;10.25;;;6.70;;
22628;SDS011;11481;53.694;9.910;2023-07-28T06:25:17;12.35;;;7.25;;
22628;SDS011;11481;53.694;9.910;2023-07-28T06:27:44;11.15;;;6.78;;
22628;SDS011;11481;53.694;9.910;2023-07-28T06:30:11;12.57;;;7.10;;
22628;SDS011;11481;53.694;9.910;2023-07-28T06:32:37;12.25;;;7.05;;
22628;SDS011;11481;53.694;9.910;2023-07-28T06:35:05;11.10;;;6.57;;
22628;SDS011;11481;53.694;9.910;2023-07-28T06:37:34;10.52;;;6.28;;
22628;SDS011;11481;53.694;9.910;2023-07-28T06:40:02;9.80;;;6.45;;
22628;SDS011;11481;53.694;9.910;2023-07-28T06:49:23;10.52;;;5.95;;
22628;SDS011;11481;53.694;9.910;2023-07-28T06:51:50;9.70;;;6.43;;
22628;SDS011;11481;53.694;9.910;2023-07-28T06:54:16;9.45;;;5.57;;
22628;SDS011;11481;53.694;9.910;2023-07-28T06:56:43;9.98;;;5.82;;
22628;SDS011;11481;53.694;9.910;2023-07-28T06:59:10;9.15;;;5.95;;
22628;SDS011;11481;53.694;9.910;2023-07-28T07:01:43;11.35;;;6.22;;
22628;SDS011;11481;53.694;9.910;2023-07-28T07:04:10;9.25;;;5.53;;
22628;SDS011;11481;53.694;9.910;2023-07-28T07:06:37;8.93;;;5.55;;
22628;SDS011;11481;53.694;9.910;2023-07-28T07:09:04;8.73;;;5.75;;
22628;SDS011;11481;53.694;9.910;2023-07-28T07:11:32;8.15;;;5.38;;
22628;SDS011;11481;53.694;9.910;2023-07-28T07:13:59;8.77;;;5.47;;
22628;SDS011;11481;53.694;9.910;2023-07-28T07:16:26;9.75;;;5.82;;
22628;SDS011;11481;53.694;9.910;2023-07-28T07:18:52;9.05;;;5.82;;
22628;SDS011;11481;53.694;9.910;2023-07-28T07:21:19;9.25;;;5.40;;
22628;SDS011;11481;53.694;9.910;2023-07-28T07:23:46;11.05;;;5.57;;
22628;SDS011;11481;53.694;9.910;2023-07-28T07:26:13;6.68;;;4.35;;
22628;SDS011;11481;53.694;9.910;2023-07-28T07:28:40;8.00;;;5.28;;
22628;SDS011;11481;53.694;9.910;2023-07-28T07:31:13;8.55;;;5.47;;
22628;SDS011;11481;53.694;9.910;2023-07-28T07:33:41;6.72;;;4.30;;
22628;SDS011;11481;53.694;9.910;2023-07-28T07:36:14;6.82;;;4.78;;
22628;SDS011;11481;53.694;9.910;2023-07-28T07:38:42;7.38;;;4.47;;
22628;SDS011;11481;53.694;9.910;2023-07-28T07:41:12;6.18;;;4.53;;
22628;SDS011;11481;53.694;9.910;2023-07-28T07:43:42;10.40;;;4.45;;
22628;SDS011;11481;53.694;9.910;2023-07-28T07:46:08;8.38;;;4.25;;
22628;SDS011;11481;53.694;9.910;2023-07-28T07:48:35;6.07;;;4.10;;
22628;SDS011;11481;53.694;9.910;2023-07-28T07:51:02;6.05;;;4.22;;
22628;SDS011;11481;53.694;9.910;2023-07-28T07:53:29;7.90;;;4.93;;
22628;SDS011;11481;53.694;9.910;2023-07-28T07:55:55;5.70;;;3.72;;
22628;SDS011;11481;53.694;9.910;2023-07-28T07:58:22;6.13;;;4.05;;
22628;SDS011;11481;53.694;9.910;2023-07-28T08:00:49;8.63;;;5.40;;
22628;SDS011;11481;53.694;9.910;2023-07-28T08:03:15;8.68;;;5.40;;
22628;SDS011;11481;53.694;9.910;2023-07-28T08:05:42;8.05;;;5.32;;
22628;SDS011;11481;53.694;9.910;2023-07-28T08:08:09;7.88;;;5.07;;
22628;SDS011;11481;53.694;9.910;2023-07-28T08:10:36;7.40;;;4.75;;
22628;SDS011;11481;53.694;9.910;2023-07-28T08:13:04;8.30;;;5.28;;
22628;SDS011;11481;53.694;9.910;2023-07-28T08:15:31;7.32;;;5.05;;
22628;SDS011;11481;53.694;9.910;2023-07-28T08:17:58;9.05;;;5.80;;
22628;SDS011;11481;53.694;9.910;2023-07-28T08:20:25;8.68;;;5.75;;
22628;SDS011;11481;53.694;9.910;2023-07-28T08:22:51;8.48;;;5.90;;
22628;SDS011;11481;53.694;9.910;2023-07-28T08:25:18;7.20;;;4.75;;
22628;SDS011;11481;53.694;9.910;2023-07-28T08:27:45;5.38;;;3.58;;
22628;SDS011;11481;53.694;9.910;2023-07-28T08:30:12;7.38;;;3.20;;
22628;SDS011;11481;53.694;9.910;2023-07-28T08:32:39;5.40;;;3.60;;
22628;SDS011;11481;53.694;9.910;2023-07-28T08:35:06;5.95;;;4.07;;
22628;SDS011;11481;53.694;9.910;2023-07-28T08:37:35;6.18;;;4.35;;
22628;SDS011;11481;53.694;9.910;2023-07-28T08:40:02;5.72;;;3.97;;
22628;SDS011;11481;53.694;9.910;2023-07-28T08:42:34;5.72;;;3.75;;
22628;SDS011;11481;53.694;9.910;2023-07-28T08:45:03;7.00;;;3.28;;
22628;SDS011;11481;53.694;9.910;2023-07-28T08:47:31;5.97;;;3.90;;
22628;SDS011;11481;53.694;9.910;2023-07-28T08:49:58;4.57;;;3.22;;
22628;SDS011;11481;53.694;9.910;2023-07-28T08:52:25;4.50;;;2.92;;
22628;SDS011;11481;53.694;9.910;2023-07-28T08:54:52;4.13;;;2.78;;
22628;SDS011;11481;53.694;9.910;2023-07-28T08:57:19;4.47;;;3.17;;
22628;SDS011;11481;53.694;9.910;2023-07-28T08:59:46;5.13;;;3.05;;
22628;SDS011;11481;53.694;9.910;2023-07-28T09:02:15;4.45;;;2.90;;
22628;SDS011;11481;53.694;9.910;2023-07-28T09:04:45;5.25;;;3.40;;
22628;SDS011;11481;53.694;9.910;2023-07-28T09:07:13;4.45;;;3.28;;
22628;SDS011;11481;53.694;9.910;2023-07-28T09:09:41;4.20;;;2.90;;
22628;SDS011;11481;53.694;9.910;2023-07-28T09:12:08;4.30;;;2.78;;
22628;SDS011;11481;53.694;9.910;2023-07-28T09:14:35;3.70;;;2.92;;
22628;SDS011;11481;53.694;9.910;2023-07-28T09:17:06;5.15;;;3.33;;
22628;SDS011;11481;53.694;9.910;2023-07-28T09:19:37;4.18;;;2.78;;
22628;SDS011;11481;53.694;9.910;2023-07-28T09:22:22;4.50;;;3.08;;
22628;SDS011;11481;53.694;9.910;2023-07-28T09:24:50;4.35;;;3.05;;
22628;SDS011;11481;53.694;9.910;2023-07-28T09:27:24;4.13;;;3.08;;
22628;SDS011;11481;53.694;9.910;2023-07-28T09:29:52;3.55;;;2.55;;
22628;SDS011;11481;53.694;9.910;2023-07-28T09:32:29;4.15;;;3.15;;
22628;SDS011;11481;53.694;9.910;2023-07-28T09:35:06;3.92;;;2.83;;
22628;SDS011;11481;53.694;9.910;2023-07-28T09:37:38;3.63;;;2.42;;
22628;SDS011;11481;53.694;9.910;2023-07-28T09:40:08;4.47;;;2.88;;
22628;SDS011;11481;53.694;9.910;2023-07-28T09:42:38;4.72;;;3.10;;
22628;SDS011;11481;53.694;9.910;2023-07-28T09:45:06;6.82;;;4.38;;
22628;SDS011;11481;53.694;9.910;2023-07-28T09:47:51;5.80;;;3.70;;
22628;SDS011;11481;53.694;9.910;2023-07-28T09:50:23;5.63;;;3.85;;
22628;SDS011;11481;53.694;9.910;2023-07-28T09:52:53;5.50;;;3.70;;
22628;SDS011;11481;53.694;9.910;2023-07-28T09:55:24;6.22;;;3.30;;
22628;SDS011;11481;53.694;9.910;2023-07-28T09:57:51;4.05;;;3.00;;
22628;SDS011;11481;53.694;9.910;2023-07-28T10:00:20;3.13;;;2.03;;
22628;SDS011;11481;53.694;9.910;2023-07-28T10:02:49;4.07;;;2.88;;
22628;SDS011;11481;53.694;9.910;2023-07-28T10:05:16;5.88;;;3.30;;
22628;SDS011;11481;53.694;9.910;2023-07-28T10:07:43;4.75;;;2.50;;
22628;SDS011;11481;53.694;9.910;2023-07-28T10:10:13;4.65;;;3.15;;
22628;SDS011;11481;53.694;9.910;2023-07-28T10:15:15;5.07;;;3.47;;
22628;SDS011;11481;53.694;9.910;2023-07-28T10:17:44;3.38;;;2.28;;
22628;SDS011;11481;53.694;9.910;2023-07-28T10:23:11;3.83;;;2.28;;
22628;SDS011;11481;53.694;9.910;2023-07-28T10:25:39;3.60;;;2.63;;
22628;SDS011;11481;53.694;9.910;2023-07-28T10:28:07;4.40;;;3.10;;
22628;SDS011;11481;53.694;9.910;2023-07-28T10:31:01;3.30;;;2.25;;
22628;SDS011;11481;53.694;9.910;2023-07-28T10:33:29;3.35;;;2.35;;
22628;SDS011;11481;53.694;9.910;2023-07-28T10:36:46;3.63;;;2.63;;
22628;SDS011;11481;53.694;9.910;2023-07-28T10:44:29;3.45;;;1.70;;
22628;SDS011;11481;53.694;9.910;2023-07-28T10:46:56;4.00;;;2.60;;
22628;SDS011;11481;53.694;9.910;2023-07-28T10:49:24;3.33;;;2.20;;
22628;SDS011;11481;53.694;9.910;2023-07-28T10:51:51;3.17;;;2.03;;
22628;SDS011;11481;53.694;9.910;2023-07-28T10:54:18;2.28;;;1.55;;
22628;SDS011;11481;53.694;9.910;2023-07-28T10:56:46;2.20;;;1.67;;
22628;SDS011;11481;53.694;9.910;2023-07-28T10:59:14;2.25;;;1.50;;
22628;SDS011;11481;53.694;9.910;2023-07-28T11:01:42;4.57;;;2.47;;
22628;SDS011;11481;53.694;9.910;2023-07-28T11:04:16;3.30;;;2.33;;
22628;SDS011;11481;53.694;9.910;2023-07-28T11:06:44;4.43;;;3.03;;
22628;SDS011;11481;53.694;9.910;2023-07-28T11:09:17;3.35;;;2.58;;
22628;SDS011;11481;53.694;9.910;2023-07-28T11:11:45;3.28;;;2.50;;
22628;SDS011;11481;53.694;9.910;2023-07-28T11:14:14;5.25;;;2.42;;
22628;SDS011;11481;53.694;9.910;2023-07-28T11:16:42;5.15;;;2.40;;
22628;SDS011;11481;53.694;9.910;2023-07-28T11:19:11;4.30;;;2.33;;
22628;SDS011;11481;53.694;9.910;2023-07-28T11:21:40;4.85;;;2.95;;
22628;SDS011;11481;53.694;9.910;2023-07-28T11:24:08;4.28;;;3.10;;
22628;SDS011;11481;53.694;9.910;2023-07-28T11:26:36;3.38;;;2.38;;
22628;SDS011;11481;53.694;9.910;2023-07-28T11:29:04;3.83;;;2.03;;
22628;SDS011;11481;53.694;9.910;2023-07-28T11:31:31;3.38;;;2.17;;
22628;SDS011;11481;53.694;9.910;2023-07-28T11:33:59;3.40;;;2.15;;
22628;SDS011;11481;53.694;9.910;2023-07-28T11:36:27;4.32;;;2.58;;
22628;SDS011;11481;53.694;9.910;2023-07-28T11:38:57;3.78;;;2.50;;
22628;SDS011;11481;53.694;9.910;2023-07-28T11:41:25;4.72;;;2.63;;
22628;SDS011;11481;53.694;9.910;2023-07-28T11:43:53;4.40;;;3.22;;
22628;SDS011;11481;53.694;9.910;2023-07-28T11:46:31;4.32;;;2.90;;
22628;SDS011;11481;53.694;9.910;2023-07-28T11:49:21;4.85;;;3.20;;
22628;SDS011;11481;53.694;9.910;2023-07-28T11:51:52;4.50;;;2.85;;
22628;SDS011;11481;53.694;9.910;2023-07-28T11:54:21;3.78;;;2.67;;
22628;SDS011;11481;53.694;9.910;2023-07-28T11:56:49;3.38;;;2.05;;
22628;SDS011;11481;53.694;9.910;2023-07-28T11:59:18;3.42;;;2.40;;
22628;SDS011;11481;53.694;9.910;2023-07-28T12:04:26;4.45;;;2.88;;
22628;SDS011;11481;53.694;9.910;2023-07-28T12:07:04;5.15;;;3.10;;
22628;SDS011;11481;53.694;9.910;2023-07-28T12:09:46;4.57;;;3.20;;
22628;SDS011;11481;53.694;9.910;2023-07-28T12:12:46;5.00;;;3.90;;
22628;SDS011;11481;53.694;9.910;2023-07-28T12:15:26;5.22;;;3.40;;
22628;SDS011;11481;53.694;9.910;2023-07-28T12:20:40;4.97;;;2.97;;
22628;SDS011;11481;53.694;9.910;2023-07-28T12:23:14;4.50;;;2.90;;
22628;SDS011;11481;53.694;9.910;2023-07-28T12:25:45;4.03;;;2.67;;
22628;SDS011;11481;53.694;9.910;2023-07-28T12:28:12;4.20;;;3.00;;
22628;SDS011;11481;53.694;9.910;2023-07-28T12:30:42;4.20;;;2.72;;
22628;SDS011;11481;53.694;9.910;2023-07-28T12:33:10;4.10;;;2.65;;
22628;SDS011;11481;53.694;9.910;2023-07-28T12:35:39;3.55;;;2.35;;
22628;SDS011;11481;53.694;9.910;2023-07-28T12:38:09;3.38;;;2.20;;
22628;SDS011;11481;53.694;9.910;2023-07-28T12:40:38;2.80;;;2.17;;
22628;SDS011;11481;53.694;9.910;2023-07-28T12:43:08;3.75;;;2.58;;
22628;SDS011;11481;53.694;9.910;2023-07-28T12:45:55;4.95;;;3.00;;
22628;SDS011;11481;53.694;9.910;2023-07-28T12:48:25;2.72;;;2.03;;
22628;SDS011;11481;53.694;9.910;2023-07-28T12:50:52;2.80;;;1.95;;
22628;SDS011;11481;53.694;9.910;2023-07-28T12:53:22;2.40;;;1.70;;
22628;SDS011;11481;53.694;9.910;2023-07-28T12:55:49;2.03;;;1.58;;
22628;SDS011;11481;53.694;9.910;2023-07-28T12:58:19;3.50;;;2.58;;
22628;SDS011;11481;53.694;9.910;2023-07-28T13:00:48;3.38;;;2.15;;
22628;SDS011;11481;53.694;9.910;2023-07-28T13:03:18;2.92;;;2.03;;
22628;SDS011;11481;53.694;9.910;2023-07-28T13:05:45;3.58;;;2.28;;
22628;SDS011;11481;53.694;9.910;2023-07-28T13:08:14;3.83;;;2.60;;
22628;SDS011;11481;53.694;9.910;2023-07-28T13:10:41;2.53;;;1.88;;
22628;SDS011;11481;53.694;9.910;2023-07-28T13:13:12;2.72;;;1.75;;
22628;SDS011;11481;53.694;9.910;2023-07-28T13:15:40;3.05;;;1.88;;
22628;SDS011;11481;53.694;9.910;2023-07-28T13:18:07;3.13;;;1.80;;
22628;SDS011;11481;53.694;9.910;2023-07-28T13:20:33;4.03;;;1.95;;
22628;SDS011;11481;53.694;9.910;2023-07-28T13:23:00;2.35;;;1.73;;
22628;SDS011;11481;53.694;9.910;2023-07-28T13:25:27;3.15;;;2.08;;
22628;SDS011;11481;53.694;9.910;2023-07-28T13:27:54;2.75;;;1.58;;
22628;SDS011;11481;53.694;9.910;2023-07-28T13:30:21;3.10;;;1.70;;
22628;SDS011;11481;53.694;9.910;2023-07-28T13:32:48;2.60;;;1.50;;
22628;SDS011;11481;53.694;9.910;2023-07-28T13:35:15;2.03;;;1.38;;
22628;SDS011;11481;53.694;9.910;2023-07-28T13:37:43;1.90;;;1.27;;
22628;SDS011;11481;53.694;9.910;2023-07-28T13:40:09;2.35;;;1.60;;
22628;SDS011;11481;53.694;9.910;2023-07-28T13:42:38;2.28;;;1.35;;
22628;SDS011;11481;53.694;9.910;2023-07-28T13:45:06;2.28;;;1.20;;
22628;SDS011;11481;53.694;9.910;2023-07-28T13:47:33;3.45;;;1.40;;
22628;SDS011;11481;53.694;9.910;2023-07-28T13:50:00;1.85;;;1.20;;
22628;SDS011;11481;53.694;9.910;2023-07-28T13:52:27;1.45;;;0.90;;
22628;SDS011;11481;53.694;9.910;2023-07-28T13:54:54;1.42;;;1.00;;
22628;SDS011;11481;53.694;9.910;2023-07-28T13:57:23;3.80;;;1.20;;
22628;SDS011;11481;53.694;9.910;2023-07-28T13:59:50;1.58;;;1.10;;
22628;SDS011;11481;53.694;9.910;2023-07-28T14:02:17;1.55;;;1.10;;
22628;SDS011;11481;53.694;9.910;2023-07-28T14:04:47;1.63;;;1.00;;
22628;SDS011;11481;53.694;9.910;2023-07-28T14:07:13;1.85;;;1.10;;
22628;SDS011;11481;53.694;9.910;2023-07-28T14:09:40;1.52;;;1.23;;
22628;SDS011;11481;53.694;9.910;2023-07-28T14:12:07;2.70;;;1.20;;
22628;SDS011;11481;53.694;9.910;2023-07-28T14:14:34;2.25;;;1.25;;
22628;SDS011;11481;53.694;9.910;2023-07-28T14:17:01;1.38;;;1.10;;
22628;SDS011;11481;53.694;9.910;2023-07-28T14:19:27;2.22;;;1.33;;
22628;SDS011;11481;53.694;9.910;2023-07-28T14:21:54;2.05;;;1.33;;
22628;SDS011;11481;53.694;9.910;2023-07-28T14:24:21;1.75;;;1.20;;
22628;SDS011;11481;53.694;9.910;2023-07-28T14:26:47;2.00;;;1.40;;
22628;SDS011;11481;53.694;9.910;2023-07-28T14:29:14;2.00;;;1.30;;
22628;SDS011;11481;53.694;9.910;2023-07-28T14:31:41;3.15;;;1.20;;
22628;SDS011;11481;53.694;9.910;2023-07-28T14:34:07;2.75;;;1.40;;
22628;SDS011;11481;53.694;9.910;2023-07-28T14:36:34;1.40;;;1.02;;
22628;SDS011;11481;53.694;9.910;2023-07-28T14:39:01;1.90;;;1.23;;
22628;SDS011;11481;53.694;9.910;2023-07-28T14:41:28;1.95;;;1.33;;
22628;SDS011;11481;53.694;9.910;2023-07-28T14:43:55;1.83;;;1.23;;
22628;SDS011;11481;53.694;9.910;2023-07-28T14:46:22;2.38;;;1.17;;
22628;SDS011;11481;53.694;9.910;2023-07-28T14:48:51;1.95;;;1.45;;
22628;SDS011;11481;53.694;9.910;2023-07-28T14:51:18;1.70;;;1.10;;
22628;SDS011;11481;53.694;9.910;2023-07-28T14:53:45;2.30;;;1.30;;
22628;SDS011;11481;53.694;9.910;2023-07-28T14:56:13;1.25;;;1.00;;
22628;SDS011;11481;53.694;9.910;2023-07-28T14:58:41;2.30;;;1.40;;
22628;SDS011;11481;53.694;9.910;2023-07-28T15:01:11;1.60;;;1.13;;
22628;SDS011;11481;53.694;9.910;2023-07-28T15:03:38;1.73;;;1.13;;
22628;SDS011;11481;53.694;9.910;2023-07-28T15:06:08;1.55;;;1.13;;
22628;SDS011;11481;53.694;9.910;2023-07-28T15:08:35;1.15;;;0.90;;
22628;SDS011;11481;53.694;9.910;2023-07-28T15:11:02;1.70;;;1.08;;
22628;SDS011;11481;53.694;9.910;2023-07-28T15:13:29;3.35;;;1.20;;
22628;SDS011;11481;53.694;9.910;2023-07-28T15:15:55;2.83;;;0.93;;
22628;SDS011;11481;53.694;9.910;2023-07-28T15:18:22;1.40;;;1.00;;
22628;SDS011;11481;53.694;9.910;2023-07-28T15:20:49;1.83;;;1.10;;
22628;SDS011;11481;53.694;9.910;2023-07-28T15:23:16;1.70;;;1.20;;
22628;SDS011;11481;53.694;9.910;2023-07-28T15:25:43;1.63;;;1.23;;
22628;SDS011;11481;53.694;9.910;2023-07-28T15:28:12;1.80;;;1.08;;